sensor_id;sensor_type;location;lat;lon;timestamp;temperature;humidity
75799;DHT22;70933;44.692;37.776;2024-03-25T00:00:35;24.97;29.80
75799;DHT22;70933;44.692;37.776;2024-03-25T00:01:37;24.97;29.80
75799;DHT22;70933;44.692;37.776;2024-03-25T00:02:40;24.95;29.79
75799;DHT22;70933;44.692;37.776;2024-03-25T00:03:42;24.95;29.84
75799;DHT22;70933;44.692;37.776;2024-03-25T00:04:44;24.95;29.80
75799;DHT22;70933;44.692;37.776;2024-03-25T00:05:46;24.97;29.83
75799;DHT22;70933;44.692;37.776;2024-03-25T00:06:49;24.97;29.80
75799;DHT22;70933;44.692;37.776;2024-03-25T00:07:51;24.97;29.80
75799;DHT22;70933;44.692;37.776;2024-03-25T00:08:53;24.95;29.82
75799;DHT22;70933;44.692;37.776;2024-03-25T00:09:54;24.95;29.79
75799;DHT22;70933;44.692;37.776;2024-03-25T00:10:56;24.95;29.78
75799;DHT22;70933;44.692;37.776;2024-03-25T00:11:58;24.98;29.85
75799;DHT22;70933;44.692;37.776;2024-03-25T00:13:00;24.98;29.76
75799;DHT22;70933;44.692;37.776;2024-03-25T00:14:01;24.95;29.77
75799;DHT22;70933;44.692;37.776;2024-03-25T00:15:03;24.98;29.75
75799;DHT22;70933;44.692;37.776;2024-03-25T00:16:08;24.98;29.75
75799;DHT22;70933;44.692;37.776;2024-03-25T00:17:09;24.97;29.74
75799;DHT22;70933;44.692;37.776;2024-03-25T00:18:12;24.98;29.78
75799;DHT22;70933;44.692;37.776;2024-03-25T00:19:14;24.98;29.74
75799;DHT22;70933;44.692;37.776;2024-03-25T00:20:16;24.97;29.77
75799;DHT22;70933;44.692;37.776;2024-03-25T00:21:18;24.97;29.76
75799;DHT22;70933;44.692;37.776;2024-03-25T00:22:22;24.97;29.79
75799;DHT22;70933;44.692;37.776;2024-03-25T00:23:26;24.97;29.74
75799;DHT22;70933;44.692;37.776;2024-03-25T00:24:28;24.97;29.74
75799;DHT22;70933;44.692;37.776;2024-03-25T00:25:29;24.97;29.76
75799;DHT22;70933;44.692;37.776;2024-03-25T00:26:31;24.94;29.71
75799;DHT22;70933;44.692;37.776;2024-03-25T00:27:34;24.97;29.78
75799;DHT22;70933;44.692;37.776;2024-03-25T00:28:35;24.97;29.77
75799;DHT22;70933;44.692;37.776;2024-03-25T00:29:37;24.95;29.74
75799;DHT22;70933;44.692;37.776;2024-03-25T00:30:39;24.95;29.77
75799;DHT22;70933;44.692;37.776;2024-03-25T00:31:40;24.98;29.74
75799;DHT22;70933;44.692;37.776;2024-03-25T00:32:42;24.95;29.71
75799;DHT22;70933;44.692;37.776;2024-03-25T00:33:44;24.97;29.78
75799;DHT22;70933;44.692;37.776;2024-03-25T00:34:46;24.97;29.71
75799;DHT22;70933;44.692;37.776;2024-03-25T00:35:48;24.97;29.72
75799;DHT22;70933;44.692;37.776;2024-03-25T00:36:51;24.95;29.71
75799;DHT22;70933;44.692;37.776;2024-03-25T00:37:52;24.95;29.73
75799;DHT22;70933;44.692;37.776;2024-03-25T00:38:55;24.94;29.77
75799;DHT22;70933;44.692;37.776;2024-03-25T00:39:56;24.95;29.71
75799;DHT22;70933;44.692;37.776;2024-03-25T00:40:59;24.95;29.74
75799;DHT22;70933;44.692;37.776;2024-03-25T00:42:01;24.94;29.71
75799;DHT22;70933;44.692;37.776;2024-03-25T00:43:03;24.95;29.68
75799;DHT22;70933;44.692;37.776;2024-03-25T00:44:04;24.95;29.72
75799;DHT22;70933;44.692;37.776;2024-03-25T00:45:06;24.97;29.68
75799;DHT22;70933;44.692;37.776;2024-03-25T00:46:09;24.97;29.69
75799;DHT22;70933;44.692;37.776;2024-03-25T00:47:10;24.97;29.69
75799;DHT22;70933;44.692;37.776;2024-03-25T00:48:12;24.95;29.71
75799;DHT22;70933;44.692;37.776;2024-03-25T00:49:14;24.95;29.69
75799;DHT22;70933;44.692;37.776;2024-03-25T00:50:15;24.95;29.68
75799;DHT22;70933;44.692;37.776;2024-03-25T00:51:17;24.95;29.71
75799;DHT22;70933;44.692;37.776;2024-03-25T00:52:19;24.95;29.68
75799;DHT22;70933;44.692;37.776;2024-03-25T00:53:21;24.95;29.67
75799;DHT22;70933;44.692;37.776;2024-03-25T00:54:23;24.95;29.66
75799;DHT22;70933;44.692;37.776;2024-03-25T00:55:25;24.95;29.68
75799;DHT22;70933;44.692;37.776;2024-03-25T00:56:27;24.97;29.67
75799;DHT22;70933;44.692;37.776;2024-03-25T00:57:29;24.97;29.64
75799;DHT22;70933;44.692;37.776;2024-03-25T00:58:31;24.95;29.64
75799;DHT22;70933;44.692;37.776;2024-03-25T00:59:32;24.95;29.69
75799;DHT22;70933;44.692;37.776;2024-03-25T01:00:34;24.95;29.65
75799;DHT22;70933;44.692;37.776;2024-03-25T01:01:36;24.97;29.65
75799;DHT22;70933;44.692;37.776;2024-03-25T01:02:38;24.97;29.63
75799;DHT22;70933;44.692;37.776;2024-03-25T01:03:40;24.95;29.62
75799;DHT22;70933;44.692;37.776;2024-03-25T01:04:41;24.97;29.65
75799;DHT22;70933;44.692;37.776;2024-03-25T01:05:43;24.98;29.68
75799;DHT22;70933;44.692;37.776;2024-03-25T01:06:45;24.98;29.61
75799;DHT22;70933;44.692;37.776;2024-03-25T01:07:47;24.98;29.61
75799;DHT22;70933;44.692;37.776;2024-03-25T01:08:49;24.97;29.64
75799;DHT22;70933;44.692;37.776;2024-03-25T01:09:51;24.98;29.62
75799;DHT22;70933;44.692;37.776;2024-03-25T01:10:53;24.95;29.60
75799;DHT22;70933;44.692;37.776;2024-03-25T01:11:54;24.98;29.62
75799;DHT22;70933;44.692;37.776;2024-03-25T01:12:56;24.98;29.58
75799;DHT22;70933;44.692;37.776;2024-03-25T01:13:58;24.98;29.59
75799;DHT22;70933;44.692;37.776;2024-03-25T01:15:00;24.97;29.62
75799;DHT22;70933;44.692;37.776;2024-03-25T01:16:05;24.97;29.60
75799;DHT22;70933;44.692;37.776;2024-03-25T01:17:08;24.95;29.56
75799;DHT22;70933;44.692;37.776;2024-03-25T01:18:10;24.97;29.60
75799;DHT22;70933;44.692;37.776;2024-03-25T01:19:11;24.97;29.60
75799;DHT22;70933;44.692;37.776;2024-03-25T01:20:13;24.95;29.59
75799;DHT22;70933;44.692;37.776;2024-03-25T01:21:15;24.95;29.62
75799;DHT22;70933;44.692;37.776;2024-03-25T01:22:16;24.97;29.58
75799;DHT22;70933;44.692;37.776;2024-03-25T01:23:18;24.97;29.55
75799;DHT22;70933;44.692;37.776;2024-03-25T01:24:20;24.97;29.58
75799;DHT22;70933;44.692;37.776;2024-03-25T01:25:21;24.95;29.55
75799;DHT22;70933;44.692;37.776;2024-03-25T01:26:23;24.97;29.58
75799;DHT22;70933;44.692;37.776;2024-03-25T01:27:25;24.97;29.58
75799;DHT22;70933;44.692;37.776;2024-03-25T01:28:27;24.97;29.57
75799;DHT22;70933;44.692;37.776;2024-03-25T01:29:28;24.98;29.53
75799;DHT22;70933;44.692;37.776;2024-03-25T01:30:30;24.97;29.55
75799;DHT22;70933;44.692;37.776;2024-03-25T01:31:32;24.97;29.51
75799;DHT22;70933;44.692;37.776;2024-03-25T01:32:33;24.97;29.58
75799;DHT22;70933;44.692;37.776;2024-03-25T01:33:35;24.97;29.51
75799;DHT22;70933;44.692;37.776;2024-03-25T01:34:37;24.97;29.51
75799;DHT22;70933;44.692;37.776;2024-03-25T01:35:38;24.95;29.54
75799;DHT22;70933;44.692;37.776;2024-03-25T01:36:40;24.97;29.51
75799;DHT22;70933;44.692;37.776;2024-03-25T01:37:42;24.95;29.53
75799;DHT22;70933;44.692;37.776;2024-03-25T01:38:44;24.97;29.49
75799;DHT22;70933;44.692;37.776;2024-03-25T01:39:46;24.98;29.53
75799;DHT22;70933;44.692;37.776;2024-03-25T01:40:47;24.97;29.52
75799;DHT22;70933;44.692;37.776;2024-03-25T01:41:49;24.97;29.48
75799;DHT22;70933;44.692;37.776;2024-03-25T01:43:01;24.98;29.48
75799;DHT22;70933;44.692;37.776;2024-03-25T01:44:03;24.97;29.55
75799;DHT22;70933;44.692;37.776;2024-03-25T01:45:05;24.95;29.51
75799;DHT22;70933;44.692;37.776;2024-03-25T01:46:07;24.97;29.49
75799;DHT22;70933;44.692;37.776;2024-03-25T01:47:09;24.98;29.50
75799;DHT22;70933;44.692;37.776;2024-03-25T01:48:11;24.95;29.48
75799;DHT22;70933;44.692;37.776;2024-03-25T01:49:18;24.98;29.52
75799;DHT22;70933;44.692;37.776;2024-03-25T01:50:20;24.97;29.46
75799;DHT22;70933;44.692;37.776;2024-03-25T01:51:23;24.98;29.48
75799;DHT22;70933;44.692;37.776;2024-03-25T01:52:25;24.97;29.49
75799;DHT22;70933;44.692;37.776;2024-03-25T01:53:28;24.98;29.45
75799;DHT22;70933;44.692;37.776;2024-03-25T01:54:31;24.98;29.47
75799;DHT22;70933;44.692;37.776;2024-03-25T01:55:34;24.97;29.45
75799;DHT22;70933;44.692;37.776;2024-03-25T01:56:38;24.98;29.45
75799;DHT22;70933;44.692;37.776;2024-03-25T01:57:40;24.98;29.45
75799;DHT22;70933;44.692;37.776;2024-03-25T01:58:42;24.98;29.48
75799;DHT22;70933;44.692;37.776;2024-03-25T01:59:44;24.98;29.47
75799;DHT22;70933;44.692;37.776;2024-03-25T02:00:46;24.97;29.40
75799;DHT22;70933;44.692;37.776;2024-03-25T02:01:48;24.98;29.42
75799;DHT22;70933;44.692;37.776;2024-03-25T02:02:50;24.99;29.42
75799;DHT22;70933;44.692;37.776;2024-03-25T02:03:54;24.98;29.44
75799;DHT22;70933;44.692;37.776;2024-03-25T02:04:56;24.99;29.40
75799;DHT22;70933;44.692;37.776;2024-03-25T02:06:01;24.98;29.40
75799;DHT22;70933;44.692;37.776;2024-03-25T02:07:04;24.97;29.45
75799;DHT22;70933;44.692;37.776;2024-03-25T02:08:07;24.97;29.41
75799;DHT22;70933;44.692;37.776;2024-03-25T02:09:10;24.98;29.48
75799;DHT22;70933;44.692;37.776;2024-03-25T02:10:14;24.98;29.42
75799;DHT22;70933;44.692;37.776;2024-03-25T02:11:16;24.98;29.45
75799;DHT22;70933;44.692;37.776;2024-03-25T02:12:19;24.98;29.42
75799;DHT22;70933;44.692;37.776;2024-03-25T02:13:21;24.97;29.42
75799;DHT22;70933;44.692;37.776;2024-03-25T02:14:24;24.97;29.42
75799;DHT22;70933;44.692;37.776;2024-03-25T02:15:26;24.97;29.43
75799;DHT22;70933;44.692;37.776;2024-03-25T02:16:28;24.97;29.38
75799;DHT22;70933;44.692;37.776;2024-03-25T02:17:29;24.97;29.39
75799;DHT22;70933;44.692;37.776;2024-03-25T02:18:31;24.98;29.38
75799;DHT22;70933;44.692;37.776;2024-03-25T02:19:33;24.97;29.40
75799;DHT22;70933;44.692;37.776;2024-03-25T02:20:36;24.97;29.41
75799;DHT22;70933;44.692;37.776;2024-03-25T02:21:38;24.97;29.39
75799;DHT22;70933;44.692;37.776;2024-03-25T02:22:40;24.95;29.39
75799;DHT22;70933;44.692;37.776;2024-03-25T02:23:42;24.97;29.37
75799;DHT22;70933;44.692;37.776;2024-03-25T02:24:49;24.95;29.35
75799;DHT22;70933;44.692;37.776;2024-03-25T02:25:53;24.97;29.40
75799;DHT22;70933;44.692;37.776;2024-03-25T02:26:55;24.95;29.35
75799;DHT22;70933;44.692;37.776;2024-03-25T02:27:57;24.95;29.36
75799;DHT22;70933;44.692;37.776;2024-03-25T02:28:58;24.98;29.35
75799;DHT22;70933;44.692;37.776;2024-03-25T02:30:10;24.97;29.35
75799;DHT22;70933;44.692;37.776;2024-03-25T02:31:14;24.97;29.33
75799;DHT22;70933;44.692;37.776;2024-03-25T02:32:16;24.95;29.35
75799;DHT22;70933;44.692;37.776;2024-03-25T02:33:20;24.94;29.34
75799;DHT22;70933;44.692;37.776;2024-03-25T02:34:21;24.95;29.39
75799;DHT22;70933;44.692;37.776;2024-03-25T02:35:25;24.95;29.40
75799;DHT22;70933;44.692;37.776;2024-03-25T02:36:28;24.95;29.36
75799;DHT22;70933;44.692;37.776;2024-03-25T02:37:30;24.95;29.38
75799;DHT22;70933;44.692;37.776;2024-03-25T02:38:32;24.95;29.32
75799;DHT22;70933;44.692;37.776;2024-03-25T02:39:34;24.97;29.36
75799;DHT22;70933;44.692;37.776;2024-03-25T02:40:36;24.98;29.35
75799;DHT22;70933;44.692;37.776;2024-03-25T02:41:38;24.97;29.32
75799;DHT22;70933;44.692;37.776;2024-03-25T02:42:41;24.97;29.35
75799;DHT22;70933;44.692;37.776;2024-03-25T02:43:43;24.97;29.34
75799;DHT22;70933;44.692;37.776;2024-03-25T02:44:44;24.94;29.31
75799;DHT22;70933;44.692;37.776;2024-03-25T02:45:47;24.95;29.32
75799;DHT22;70933;44.692;37.776;2024-03-25T02:46:49;24.95;29.30
75799;DHT22;70933;44.692;37.776;2024-03-25T02:47:51;24.97;29.32
75799;DHT22;70933;44.692;37.776;2024-03-25T02:48:53;24.95;29.38
75799;DHT22;70933;44.692;37.776;2024-03-25T02:49:54;24.97;29.29
75799;DHT22;70933;44.692;37.776;2024-03-25T02:50:56;24.94;29.29
75799;DHT22;70933;44.692;37.776;2024-03-25T02:51:58;24.95;29.32
75799;DHT22;70933;44.692;37.776;2024-03-25T02:52:59;24.94;29.29
75799;DHT22;70933;44.692;37.776;2024-03-25T02:54:01;24.97;29.29
75799;DHT22;70933;44.692;37.776;2024-03-25T02:55:03;24.97;29.28
75799;DHT22;70933;44.692;37.776;2024-03-25T02:56:05;24.95;29.32
75799;DHT22;70933;44.692;37.776;2024-03-25T02:57:07;24.97;29.27
75799;DHT22;70933;44.692;37.776;2024-03-25T02:58:09;24.95;29.28
75799;DHT22;70933;44.692;37.776;2024-03-25T02:59:10;24.95;29.27
75799;DHT22;70933;44.692;37.776;2024-03-25T03:00:12;24.95;29.27
75799;DHT22;70933;44.692;37.776;2024-03-25T03:01:15;24.95;29.26
75799;DHT22;70933;44.692;37.776;2024-03-25T03:02:17;24.95;29.22
75799;DHT22;70933;44.692;37.776;2024-03-25T03:03:19;24.95;29.21
75799;DHT22;70933;44.692;37.776;2024-03-25T03:04:21;24.95;29.25
75799;DHT22;70933;44.692;37.776;2024-03-25T03:05:22;24.97;29.31
75799;DHT22;70933;44.692;37.776;2024-03-25T03:06:24;24.95;29.25
75799;DHT22;70933;44.692;37.776;2024-03-25T03:07:26;24.97;29.25
75799;DHT22;70933;44.692;37.776;2024-03-25T03:08:27;24.95;29.22
75799;DHT22;70933;44.692;37.776;2024-03-25T03:09:29;24.95;29.25
75799;DHT22;70933;44.692;37.776;2024-03-25T03:10:31;24.97;29.21
75799;DHT22;70933;44.692;37.776;2024-03-25T03:11:32;24.95;29.23
75799;DHT22;70933;44.692;37.776;2024-03-25T03:12:35;24.95;29.22
75799;DHT22;70933;44.692;37.776;2024-03-25T03:13:37;24.97;29.24
75799;DHT22;70933;44.692;37.776;2024-03-25T03:14:39;24.95;29.23
75799;DHT22;70933;44.692;37.776;2024-03-25T03:15:46;24.98;29.22
75799;DHT22;70933;44.692;37.776;2024-03-25T03:16:49;24.97;29.20
75799;DHT22;70933;44.692;37.776;2024-03-25T03:17:59;24.97;29.21
75799;DHT22;70933;44.692;37.776;2024-03-25T03:19:01;24.97;29.22
75799;DHT22;70933;44.692;37.776;2024-03-25T03:20:02;24.97;29.24
75799;DHT22;70933;44.692;37.776;2024-03-25T03:21:04;24.97;29.26
75799;DHT22;70933;44.692;37.776;2024-03-25T03:22:06;24.97;29.26
75799;DHT22;70933;44.692;37.776;2024-03-25T03:23:08;24.97;29.17
75799;DHT22;70933;44.692;37.776;2024-03-25T03:24:09;24.95;29.20
75799;DHT22;70933;44.692;37.776;2024-03-25T03:25:11;24.95;29.20
75799;DHT22;70933;44.692;37.776;2024-03-25T03:26:13;24.97;29.24
75799;DHT22;70933;44.692;37.776;2024-03-25T03:27:15;24.94;29.19
75799;DHT22;70933;44.692;37.776;2024-03-25T03:28:17;24.95;29.19
75799;DHT22;70933;44.692;37.776;2024-03-25T03:29:19;24.95;29.16
75799;DHT22;70933;44.692;37.776;2024-03-25T03:30:20;24.95;29.17
75799;DHT22;70933;44.692;37.776;2024-03-25T03:31:22;24.95;29.17
75799;DHT22;70933;44.692;37.776;2024-03-25T03:32:24;24.95;29.17
75799;DHT22;70933;44.692;37.776;2024-03-25T03:33:25;24.95;29.17
75799;DHT22;70933;44.692;37.776;2024-03-25T03:34:27;24.95;29.19
75799;DHT22;70933;44.692;37.776;2024-03-25T03:35:29;24.97;29.16
75799;DHT22;70933;44.692;37.776;2024-03-25T03:36:30;24.97;29.14
75799;DHT22;70933;44.692;37.776;2024-03-25T03:37:32;24.95;29.19
75799;DHT22;70933;44.692;37.776;2024-03-25T03:38:34;24.95;29.16
75799;DHT22;70933;44.692;37.776;2024-03-25T03:39:35;24.95;29.16
75799;DHT22;70933;44.692;37.776;2024-03-25T03:40:37;24.95;29.14
75799;DHT22;70933;44.692;37.776;2024-03-25T03:41:39;24.95;29.18
75799;DHT22;70933;44.692;37.776;2024-03-25T03:42:40;24.95;29.16
75799;DHT22;70933;44.692;37.776;2024-03-25T03:43:42;24.97;29.15
75799;DHT22;70933;44.692;37.776;2024-03-25T03:44:44;24.95;29.13
75799;DHT22;70933;44.692;37.776;2024-03-25T03:45:45;24.97;29.14
75799;DHT22;70933;44.692;37.776;2024-03-25T03:46:47;24.97;29.15
75799;DHT22;70933;44.692;37.776;2024-03-25T03:47:48;24.95;29.11
75799;DHT22;70933;44.692;37.776;2024-03-25T03:48:50;24.97;29.11
75799;DHT22;70933;44.692;37.776;2024-03-25T03:49:52;24.97;29.17
75799;DHT22;70933;44.692;37.776;2024-03-25T03:50:53;24.95;29.16
75799;DHT22;70933;44.692;37.776;2024-03-25T03:51:55;24.95;29.13
75799;DHT22;70933;44.692;37.776;2024-03-25T03:52:58;24.95;29.10
75799;DHT22;70933;44.692;37.776;2024-03-25T03:54:00;24.95;29.16
75799;DHT22;70933;44.692;37.776;2024-03-25T03:55:02;24.95;29.13
75799;DHT22;70933;44.692;37.776;2024-03-25T03:56:05;24.95;29.13
75799;DHT22;70933;44.692;37.776;2024-03-25T03:57:07;24.95;29.12
75799;DHT22;70933;44.692;37.776;2024-03-25T03:58:08;24.97;29.09
75799;DHT22;70933;44.692;37.776;2024-03-25T03:59:10;24.97;29.06
75799;DHT22;70933;44.692;37.776;2024-03-25T04:00:19;24.95;29.10
75799;DHT22;70933;44.692;37.776;2024-03-25T04:01:21;24.95;29.10
75799;DHT22;70933;44.692;37.776;2024-03-25T04:02:23;24.97;29.10
75799;DHT22;70933;44.692;37.776;2024-03-25T04:03:25;24.97;29.10
75799;DHT22;70933;44.692;37.776;2024-03-25T04:04:27;24.97;29.10
75799;DHT22;70933;44.692;37.776;2024-03-25T04:05:32;24.95;29.09
75799;DHT22;70933;44.692;37.776;2024-03-25T04:06:33;24.95;29.04
75799;DHT22;70933;44.692;37.776;2024-03-25T04:07:35;24.95;29.09
75799;DHT22;70933;44.692;37.776;2024-03-25T04:08:38;24.95;29.05
75799;DHT22;70933;44.692;37.776;2024-03-25T04:09:39;24.95;29.10
75799;DHT22;70933;44.692;37.776;2024-03-25T04:10:42;24.95;29.08
75799;DHT22;70933;44.692;37.776;2024-03-25T04:11:44;24.97;29.04
75799;DHT22;70933;44.692;37.776;2024-03-25T04:12:46;24.97;29.09
75799;DHT22;70933;44.692;37.776;2024-03-25T04:13:48;24.97;29.06
75799;DHT22;70933;44.692;37.776;2024-03-25T04:14:50;24.97;29.06
75799;DHT22;70933;44.692;37.776;2024-03-25T04:16:03;24.98;29.00
75799;DHT22;70933;44.692;37.776;2024-03-25T04:17:05;24.95;29.01
75799;DHT22;70933;44.692;37.776;2024-03-25T04:18:08;24.97;29.07
75799;DHT22;70933;44.692;37.776;2024-03-25T04:19:10;24.95;29.01
75799;DHT22;70933;44.692;37.776;2024-03-25T04:20:12;24.95;29.03
75799;DHT22;70933;44.692;37.776;2024-03-25T04:21:14;24.97;29.06
75799;DHT22;70933;44.692;37.776;2024-03-25T04:22:16;24.97;29.03
75799;DHT22;70933;44.692;37.776;2024-03-25T04:23:18;24.95;28.97
75799;DHT22;70933;44.692;37.776;2024-03-25T04:24:19;24.97;29.03
75799;DHT22;70933;44.692;37.776;2024-03-25T04:25:21;24.97;28.99
75799;DHT22;70933;44.692;37.776;2024-03-25T04:26:23;24.95;29.05
75799;DHT22;70933;44.692;37.776;2024-03-25T04:27:25;24.95;29.01
75799;DHT22;70933;44.692;37.776;2024-03-25T04:28:28;24.95;28.97
75799;DHT22;70933;44.692;37.776;2024-03-25T04:29:29;24.97;28.97
75799;DHT22;70933;44.692;37.776;2024-03-25T04:30:32;24.97;29.00
75799;DHT22;70933;44.692;37.776;2024-03-25T04:31:34;24.95;28.93
75799;DHT22;70933;44.692;37.776;2024-03-25T04:32:38;24.97;28.99
75799;DHT22;70933;44.692;37.776;2024-03-25T04:33:41;24.95;28.97
75799;DHT22;70933;44.692;37.776;2024-03-25T04:34:43;24.95;28.98
75799;DHT22;70933;44.692;37.776;2024-03-25T04:35:45;24.95;28.96
75799;DHT22;70933;44.692;37.776;2024-03-25T04:36:47;24.94;28.93
75799;DHT22;70933;44.692;37.776;2024-03-25T04:37:49;24.97;28.95
75799;DHT22;70933;44.692;37.776;2024-03-25T04:38:51;24.94;28.94
75799;DHT22;70933;44.692;37.776;2024-03-25T04:39:53;24.94;28.93
75799;DHT22;70933;44.692;37.776;2024-03-25T04:40:55;24.95;28.58
75799;DHT22;70933;44.692;37.776;2024-03-25T04:41:56;24.95;28.28
75799;DHT22;70933;44.692;37.776;2024-03-25T04:42:59;24.93;27.53
75799;DHT22;70933;44.692;37.776;2024-03-25T04:44:01;24.91;27.62
75799;DHT22;70933;44.692;37.776;2024-03-25T04:45:02;24.91;27.46
75799;DHT22;70933;44.692;37.776;2024-03-25T04:46:05;24.89;27.53
75799;DHT22;70933;44.692;37.776;2024-03-25T04:47:07;24.86;27.65
75799;DHT22;70933;44.692;37.776;2024-03-25T04:48:08;24.85;27.62
75799;DHT22;70933;44.692;37.776;2024-03-25T04:49:11;24.85;28.24
75799;DHT22;70933;44.692;37.776;2024-03-25T04:50:13;24.83;27.78
75799;DHT22;70933;44.692;37.776;2024-03-25T04:51:15;24.83;28.14
75799;DHT22;70933;44.692;37.776;2024-03-25T04:52:16;24.82;27.92
75799;DHT22;70933;44.692;37.776;2024-03-25T04:53:18;24.82;27.58
75799;DHT22;70933;44.692;37.776;2024-03-25T04:54:20;24.83;27.74
75799;DHT22;70933;44.692;37.776;2024-03-25T04:55:22;24.80;27.87
75799;DHT22;70933;44.692;37.776;2024-03-25T04:56:23;24.80;28.45
75799;DHT22;70933;44.692;37.776;2024-03-25T04:57:25;24.82;28.72
75799;DHT22;70933;44.692;37.776;2024-03-25T04:58:27;24.80;28.26
75799;DHT22;70933;44.692;37.776;2024-03-25T04:59:28;24.79;28.52
75799;DHT22;70933;44.692;37.776;2024-03-25T05:00:30;24.80;28.34
75799;DHT22;70933;44.692;37.776;2024-03-25T05:01:33;24.82;28.25
75799;DHT22;70933;44.692;37.776;2024-03-25T05:02:34;24.82;27.78
75799;DHT22;70933;44.692;37.776;2024-03-25T05:03:38;24.80;28.12
75799;DHT22;70933;44.692;37.776;2024-03-25T05:04:40;24.80;28.78
75799;DHT22;70933;44.692;37.776;2024-03-25T05:05:42;24.80;28.75
75799;DHT22;70933;44.692;37.776;2024-03-25T05:06:43;24.79;28.75
75799;DHT22;70933;44.692;37.776;2024-03-25T05:07:45;24.80;28.77
75799;DHT22;70933;44.692;37.776;2024-03-25T05:08:47;24.78;28.77
75799;DHT22;70933;44.692;37.776;2024-03-25T05:09:50;24.79;28.81
75799;DHT22;70933;44.692;37.776;2024-03-25T05:10:53;24.82;29.00
75799;DHT22;70933;44.692;37.776;2024-03-25T05:11:55;24.82;28.81
75799;DHT22;70933;44.692;37.776;2024-03-25T05:12:56;24.83;28.84
75799;DHT22;70933;44.692;37.776;2024-03-25T05:13:59;24.83;28.89
75799;DHT22;70933;44.692;37.776;2024-03-25T05:15:01;24.85;28.95
75799;DHT22;70933;44.692;37.776;2024-03-25T05:16:06;24.84;29.00
75799;DHT22;70933;44.692;37.776;2024-03-25T05:17:08;24.86;29.03
75799;DHT22;70933;44.692;37.776;2024-03-25T05:18:10;24.87;29.07
75799;DHT22;70933;44.692;37.776;2024-03-25T05:19:12;24.87;29.03
75799;DHT22;70933;44.692;37.776;2024-03-25T05:20:14;24.87;29.04
75799;DHT22;70933;44.692;37.776;2024-03-25T05:21:15;24.89;29.19
75799;DHT22;70933;44.692;37.776;2024-03-25T05:22:17;24.90;29.19
75799;DHT22;70933;44.692;37.776;2024-03-25T05:23:19;24.91;29.02
75799;DHT22;70933;44.692;37.776;2024-03-25T05:24:21;24.92;28.94
75799;DHT22;70933;44.692;37.776;2024-03-25T05:25:25;24.93;28.87
75799;DHT22;70933;44.692;37.776;2024-03-25T05:26:30;24.91;28.64
75799;DHT22;70933;44.692;37.776;2024-03-25T05:27:32;24.92;28.49
75799;DHT22;70933;44.692;37.776;2024-03-25T05:28:34;24.92;28.36
75799;DHT22;70933;44.692;37.776;2024-03-25T05:29:35;24.92;28.63
75799;DHT22;70933;44.692;37.776;2024-03-25T05:30:37;24.92;28.71
75799;DHT22;70933;44.692;37.776;2024-03-25T05:31:39;24.92;28.71
75799;DHT22;70933;44.692;37.776;2024-03-25T05:32:56;24.92;28.60
75799;DHT22;70933;44.692;37.776;2024-03-25T05:33:58;24.91;28.55
75799;DHT22;70933;44.692;37.776;2024-03-25T05:35:03;24.91;28.47
75799;DHT22;70933;44.692;37.776;2024-03-25T05:36:04;24.91;28.26
75799;DHT22;70933;44.692;37.776;2024-03-25T05:37:06;24.92;28.16
75799;DHT22;70933;44.692;37.776;2024-03-25T05:38:08;24.92;28.00
75799;DHT22;70933;44.692;37.776;2024-03-25T05:39:10;24.91;27.86
75799;DHT22;70933;44.692;37.776;2024-03-25T05:40:12;24.91;27.90
75799;DHT22;70933;44.692;37.776;2024-03-25T05:41:13;24.90;27.78
75799;DHT22;70933;44.692;37.776;2024-03-25T05:42:15;24.91;27.87
75799;DHT22;70933;44.692;37.776;2024-03-25T05:43:17;24.92;27.78
75799;DHT22;70933;44.692;37.776;2024-03-25T05:44:19;24.93;26.37
75799;DHT22;70933;44.692;37.776;2024-03-25T05:45:22;24.91;27.58
75799;DHT22;70933;44.692;37.776;2024-03-25T05:46:24;24.91;27.55
75799;DHT22;70933;44.692;37.776;2024-03-25T05:47:26;24.92;27.47
75799;DHT22;70933;44.692;37.776;2024-03-25T05:48:28;24.92;27.03
75799;DHT22;70933;44.692;37.776;2024-03-25T05:49:30;24.92;27.45
75799;DHT22;70933;44.692;37.776;2024-03-25T05:50:32;24.92;26.96
75799;DHT22;70933;44.692;37.776;2024-03-25T05:51:33;24.92;26.98
75799;DHT22;70933;44.692;37.776;2024-03-25T05:52:35;24.92;26.84
75799;DHT22;70933;44.692;37.776;2024-03-25T05:53:37;24.93;27.18
75799;DHT22;70933;44.692;37.776;2024-03-25T05:54:39;24.92;27.14
75799;DHT22;70933;44.692;37.776;2024-03-25T05:55:41;24.92;27.06
75799;DHT22;70933;44.692;37.776;2024-03-25T05:56:42;24.91;26.97
75799;DHT22;70933;44.692;37.776;2024-03-25T05:57:44;24.91;26.81
75799;DHT22;70933;44.692;37.776;2024-03-25T05:58:47;24.90;26.91
75799;DHT22;70933;44.692;37.776;2024-03-25T05:59:49;24.90;26.78
75799;DHT22;70933;44.692;37.776;2024-03-25T06:00:51;24.90;26.97
75799;DHT22;70933;44.692;37.776;2024-03-25T06:01:53;24.90;26.88
75799;DHT22;70933;44.692;37.776;2024-03-25T06:02:54;24.89;26.02
75799;DHT22;70933;44.692;37.776;2024-03-25T06:03:56;24.89;26.58
75799;DHT22;70933;44.692;37.776;2024-03-25T06:04:58;24.88;26.09
75799;DHT22;70933;44.692;37.776;2024-03-25T06:05:59;24.88;26.49
75799;DHT22;70933;44.692;37.776;2024-03-25T06:07:03;24.87;26.50
75799;DHT22;70933;44.692;37.776;2024-03-25T06:08:05;24.87;26.22
75799;DHT22;70933;44.692;37.776;2024-03-25T06:09:07;24.85;26.36
75799;DHT22;70933;44.692;37.776;2024-03-25T06:10:09;24.84;25.34
75799;DHT22;70933;44.692;37.776;2024-03-25T06:11:11;24.83;25.22
75799;DHT22;70933;44.692;37.776;2024-03-25T06:12:13;24.83;25.16
75799;DHT22;70933;44.692;37.776;2024-03-25T06:13:16;24.83;25.85
75799;DHT22;70933;44.692;37.776;2024-03-25T06:14:20;24.82;25.52
75799;DHT22;70933;44.692;37.776;2024-03-25T06:15:22;24.79;25.46
75799;DHT22;70933;44.692;37.776;2024-03-25T06:16:24;24.78;24.98
75799;DHT22;70933;44.692;37.776;2024-03-25T06:17:28;24.77;25.49
75799;DHT22;70933;44.692;37.776;2024-03-25T06:18:29;24.76;25.28
75799;DHT22;70933;44.692;37.776;2024-03-25T06:19:31;24.74;25.04
75799;DHT22;70933;44.692;37.776;2024-03-25T06:20:33;24.73;25.07
75799;DHT22;70933;44.692;37.776;2024-03-25T06:21:35;24.72;24.92
75799;DHT22;70933;44.692;37.776;2024-03-25T06:22:36;24.71;25.91
75799;DHT22;70933;44.692;37.776;2024-03-25T06:23:38;24.71;26.26
75799;DHT22;70933;44.692;37.776;2024-03-25T06:24:40;24.70;26.39
75799;DHT22;70933;44.692;37.776;2024-03-25T06:25:42;24.72;26.47
75799;DHT22;70933;44.692;37.776;2024-03-25T06:26:44;24.73;26.88